Time;durP1;ratioP1;P1;durP2;ratioP2;P2;SDS_P1;SDS_P2;PMS_P1;PMS_P2;Temp;Humidity;BMP_temperature;BMP_pressure;BME280_temperature;BME280_humidity;BME280_pressure;Samples;Min_cycle;Max_cycle;Signal;HPM_P1;HPM_P2
2022/05/29 00:01:40;;;;;;;7.95;2.10;;;;;;;;;;6241179;23;20000;-89
2022/05/29 00:04:06;;;;;;;11.88;3.17;;;;;;;;;;6239597;23;20004;-90
2022/05/29 00:06:38;;;;;;;5.75;2.35;;;;;;;;;;6240359;23;20095;-90
2022/05/29 00:09:04;;;;;;;5.97;2.40;;;;;;;;;;6239819;23;20004;-90
2022/05/29 00:11:30;;;;;;;10.13;2.42;;;;;;;;;;6241500;23;20332;-90
2022/05/29 00:14:00;;;;;;;8.18;2.20;;;;;;;;;;6241346;23;20086;-90
2022/05/29 00:16:27;;;;;;;9.93;2.13;;;;;;;;;;6239307;23;19996;-90
2022/05/29 00:18:53;;;;;;;6.85;2.63;;;;;;;;;;6241303;23;20011;-90
2022/05/29 00:21:20;;;;;;;7.82;2.33;;;;;;;;;;6242029;23;20028;-91
2022/05/29 00:23:49;;;;;;;4.93;1.90;;;;;;;;;;6241109;23;20004;-91
2022/05/29 00:26:16;;;;;;;8.23;2.70;;;;;;;;;;6242709;23;20494;-90
2022/05/29 00:28:42;;;;;;;6.03;2.30;;;;;;;;;;6241666;23;20344;-89
2022/05/29 00:31:09;;;;;;;11.10;3.17;;;;;;;;;;6239973;23;20099;-89
2022/05/29 00:33:35;;;;;;;9.75;2.67;;;;;;;;;;6239975;23;20111;-91
2022/05/29 00:36:01;;;;;;;5.18;2.10;;;;;;;;;;6241572;23;20008;-90
2022/05/29 00:38:27;;;;;;;9.98;2.55;;;;;;;;;;6239864;23;20419;-91
2022/05/29 00:41:17;;;;;;;6.45;2.35;;;;;;;;;;6240178;23;20008;-89
2022/05/29 00:44:02;;;;;;;7.63;2.25;;;;;;;;;;6241533;23;20065;-90
2022/05/29 00:46:30;;;;;;;9.30;2.65;;;;;;;;;;6243227;23;20004;-90
2022/05/29 00:48:56;;;;;;;10.10;2.42;;;;;;;;;;6242993;23;20368;-89
2022/05/29 00:51:23;;;;;;;6.55;2.22;;;;;;;;;;6263228;22;20004;-90
2022/05/29 00:53:49;;;;;;;5.60;2.20;;;;;;;;;;6266666;22;20081;-91
2022/05/29 00:56:15;;;;;;;6.65;2.22;;;;;;;;;;6271652;22;19985;-90
2022/05/29 00:58:42;;;;;;;6.15;2.20;;;;;;;;;;6249869;22;20457;-90
2022/05/29 01:01:08;;;;;;;7.07;2.60;;;;;;;;;;6245548;23;19996;-90
2022/05/29 01:03:34;;;;;;;7.53;2.17;;;;;;;;;;6241817;23;20011;-90
2022/05/29 01:06:00;;;;;;;13.20;3.45;;;;;;;;;;6243491;23;20004;-89
2022/05/29 01:08:28;;;;;;;9.57;2.83;;;;;;;;;;6243102;23;20000;-90
2022/05/29 01:11:04;;;;;;;5.82;2.17;;;;;;;;;;6241040;23;20326;-90
2022/05/29 01:13:48;;;;;;;6.82;2.47;;;;;;;;;;6243308;23;20007;-90
2022/05/29 01:16:21;;;;;;;6.75;2.35;;;;;;;;;;6243564;23;20483;-90
2022/05/29 01:19:07;;;;;;;8.07;2.33;;;;;;;;;;6243601;23;20004;-90
2022/05/29 01:21:50;;;;;;;4.55;2.25;;;;;;;;;;6241849;23;20010;-90
2022/05/29 01:24:19;;;;;;;3.90;1.95;;;;;;;;;;6242994;23;19996;-91
2022/05/29 01:26:58;;;;;;;6.53;2.30;;;;;;;;;;6241760;23;20024;-90
2022/05/29 01:29:32;;;;;;;5.90;2.25;;;;;;;;;;6241839;23;20062;-90
2022/05/29 01:32:03;;;;;;;6.72;2.17;;;;;;;;;;6243284;23;20005;-90
2022/05/29 01:34:41;;;;;;;9.07;2.25;;;;;;;;;;6243227;23;20079;-90
2022/05/29 01:37:28;;;;;;;7.88;2.92;;;;;;;;;;6243417;23;20062;-90
2022/05/29 01:40:07;;;;;;;6.03;2.22;;;;;;;;;;6241896;23;20029;-90
2022/05/29 01:42:36;;;;;;;7.18;2.45;;;;;;;;;;6241734;23;20012;-90
2022/05/29 01:45:08;;;;;;;8.40;2.88;;;;;;;;;;6243359;23;20441;-90
2022/05/29 01:47:47;;;;;;;4.93;2.33;;;;;;;;;;6241655;23;20340;-90
2022/05/29 01:50:17;;;;;;;9.75;2.40;;;;;;;;;;6243129;23;19996;-90
2022/05/29 01:52:49;;;;;;;8.90;2.65;;;;;;;;;;6240985;23;20003;-91
2022/05/29 01:55:15;;;;;;;6.43;2.20;;;;;;;;;;6243648;23;20487;-91
2022/05/29 01:57:44;;;;;;;7.53;2.92;;;;;;;;;;6241371;23;20051;-90
2022/05/29 02:00:17;;;;;;;7.55;2.60;;;;;;;;;;6241371;23;20388;-90
2022/05/29 02:02:56;;;;;;;5.80;2.78;;;;;;;;;;6243176;23;20004;-90
2022/05/29 02:05:24;;;;;;;8.13;2.30;;;;;;;;;;6242120;23;20008;-90
2022/05/29 02:07:50;;;;;;;;;;;;;;;;;;6242959;23;20049;-91
2022/05/29 02:10:21;;;;;;;7.20;1.80;;;;;;;;;;6241282;23;19957;-91
2022/05/29 02:12:56;;;;;;;5.68;2.28;;;;;;;;;;6241482;23;20008;-91
2022/05/29 02:15:33;;;;;;;6.40;2.25;;;;;;;;;;6242504;23;20079;-91
2022/05/29 02:18:02;;;;;;;8.68;2.63;;;;;;;;;;6242880;23;20058;-91
2022/05/29 02:20:31;;;;;;;5.20;2.05;;;;;;;;;;6242656;23;20004;-91
2022/05/29 02:23:01;;;;;;;4.35;1.88;;;;;;;;;;6242857;23;20050;-90
2022/05/29 02:25:30;;;;;;;5.55;2.20;;;;;;;;;;6241748;23;20012;-90
2022/05/29 02:27:57;;;;;;;7.68;2.30;;;;;;;;;;6241837;23;20008;-90
2022/05/29 02:30:24;;;;;;;10.10;2.05;;;;;;;;;;6243580;23;20004;-91
2022/05/29 02:32:58;;;;;;;4.47;1.85;;;;;;;;;;6241362;23;20004;-91
2022/05/29 02:35:29;;;;;;;7.43;2.13;;;;;;;;;;6244278;23;20359;-89
2022/05/29 02:38:17;;;;;;;6.15;2.10;;;;;;;;;;6243898;23;20028;-90
2022/05/29 02:40:43;;;;;;;8.87;2.83;;;;;;;;;;6240828;23;20022;-90
2022/05/29 02:43:15;;;;;;;5.75;2.30;;;;;;;;;;6242611;23;20403;-90
2022/05/29 02:45:41;;;;;;;6.85;2.70;;;;;;;;;;6242328;23;20023;-90
2022/05/29 02:48:22;;;;;;;6.85;2.55;;;;;;;;;;6242737;23;20075;-90
2022/05/29 02:50:52;;;;;;;10.10;2.30;;;;;;;;;;6241164;23;20114;-89
2022/05/29 02:53:18;;;;;;;7.07;2.00;;;;;;;;;;6242272;23;20201;-90
2022/05/29 02:55:45;;;;;;;6.70;2.47;;;;;;;;;;6241947;23;20071;-89
2022/05/29 02:58:18;;;;;;;6.72;2.72;;;;;;;;;;6240600;23;20440;-91
2022/05/29 03:01:07;;;;;;;5.13;3.08;;;;;;;;;;6242418;23;20028;-89
2022/05/29 03:03:38;;;;;;;3.85;1.98;;;;;;;;;;6242141;22;20087;-89
2022/05/29 03:06:20;;;;;;;5.32;2.70;;;;;;;;;;6240446;23;20008;-90
2022/05/29 03:08:58;;;;;;;6.72;3.17;;;;;;;;;;6240963;23;20007;-90
2022/05/29 03:11:30;;;;;;;4.53;2.17;;;;;;;;;;6242996;23;20008;-90
2022/05/29 03:14:05;;;;;;;4.45;2.38;;;;;;;;;;6243133;23;20475;-89
2022/05/29 03:16:31;;;;;;;5.70;2.40;;;;;;;;;;6242084;23;20000;-90
2022/05/29 03:19:01;;;;;;;3.92;2.17;;;;;;;;;;6241103;23;20008;-90
2022/05/29 03:21:41;;;;;;;7.75;2.50;;;;;;;;;;6241256;23;20014;-90
2022/05/29 03:24:10;;;;;;;8.93;2.83;;;;;;;;;;6241328;23;20023;-89
2022/05/29 03:26:41;;;;;;;5.32;2.72;;;;;;;;;;6259862;22;20039;-89
2022/05/29 03:29:09;;;;;;;6.40;2.83;;;;;;;;;;6267980;23;20095;-90
2022/05/29 03:31:36;;;;;;;7.10;3.63;;;;;;;;;;6269982;22;20005;-90
2022/05/29 03:34:03;;;;;;;4.35;2.28;;;;;;;;;;6249602;23;20334;-90
2022/05/29 03:36:29;;;;;;;6.75;2.63;;;;;;;;;;6245418;23;19996;-89
2022/05/29 03:39:05;;;;;;;7.97;1.90;;;;;;;;;;6241711;23;20344;-90
2022/05/29 03:41:31;;;;;;;4.70;1.90;;;;;;;;;;6242545;23;20004;-90
2022/05/29 03:43:57;;;;;;;8.07;2.17;;;;;;;;;;6240652;23;20046;-90
2022/05/29 03:46:23;;;;;;;3.22;1.90;;;;;;;;;;6240674;23;20332;-89
2022/05/29 03:48:49;;;;;;;7.38;3.03;;;;;;;;;;6240522;23;20337;-89
2022/05/29 03:51:15;;;;;;;5.60;3.15;;;;;;;;;;6240133;23;20000;-89
2022/05/29 03:53:41;;;;;;;5.10;2.80;;;;;;;;;;6239971;23;20012;-89
2022/05/29 03:56:07;;;;;;;6.05;2.75;;;;;;;;;;6241236;23;20075;-89
2022/05/29 03:58:33;;;;;;;5.97;2.03;;;;;;;;;;6239971;23;20012;-89
2022/05/29 04:00:59;;;;;;;3.75;2.10;;;;;;;;;;6242658;23;20003;-89
2022/05/29 04:03:25;;;;;;;6.53;2.30;;;;;;;;;;6240294;23;20314;-90
2022/05/29 04:05:52;;;;;;;3.30;1.73;;;;;;;;;;6240494;23;20424;-88
2022/05/29 04:13:47;;;;;;;7.15;2.95;;;;;;;;;;6241895;23;20070;-89
2022/05/29 04:16:14;;;;;;;5.90;2.40;;;;;;;;;;6239367;23;20028;-90
2022/05/29 04:18:40;;;;;;;7.35;2.75;;;;;;;;;;6241839;23;20011;-89
2022/05/29 04:21:06;;;;;;;6.93;2.40;;;;;;;;;;6240084;23;20453;-90
2022/05/29 04:23:33;;;;;;;3.08;2.30;;;;;;;;;;6240730;23;20314;-89
2022/05/29 04:25:59;;;;;;;3.58;2.00;;;;;;;;;;6241197;23;20004;-90
2022/05/29 04:28:25;;;;;;;2.83;1.75;;;;;;;;;;6241883;23;20000;-89
2022/05/29 04:30:51;;;;;;;8.00;3.10;;;;;;;;;;6240300;23;20039;-90
2022/05/29 04:33:17;;;;;;;10.88;2.50;;;;;;;;;;6241178;23;20015;-90
2022/05/29 04:35:45;;;;;;;11.90;2.47;;;;;;;;;;6241139;23;20448;-89
2022/05/29 04:38:12;;;;;;;5.73;2.37;;;;;;;;;;6239631;23;20384;-90
2022/05/29 04:40:39;;;;;;;6.20;2.85;;;;;;;;;;6240188;23;20011;-89
2022/05/29 04:43:05;;;;;;;3.97;2.10;;;;;;;;;;6239786;23;20524;-88
2022/05/29 04:45:32;;;;;;;5.05;2.05;;;;;;;;;;6242442;23;20004;-89
2022/05/29 04:47:58;;;;;;;3.50;1.92;;;;;;;;;;6239215;23;20079;-89
2022/05/29 04:50:25;;;;;;;5.32;1.70;;;;;;;;;;6239954;23;20302;-90
2022/05/29 04:52:51;;;;;;;5.55;3.45;;;;;;;;;;6240211;23;20024;-89
2022/05/29 04:55:18;;;;;;;7.28;2.67;;;;;;;;;;6241152;23;20008;-89
2022/05/29 04:57:44;;;;;;;6.57;2.90;;;;;;;;;;6240822;23;20310;-91
2022/05/29 05:00:23;;;;;;;;;;;;;;;;;;;;;
2022/05/29 05:02:50;;;;;;;9.07;3.47;;;;;;;;;;6245658;23;20080;-90
2022/05/29 05:05:17;;;;;;;6.30;2.83;;;;;;;;;;6240634;23;20004;-90
2022/05/29 05:07:43;;;;;;;8.13;3.13;;;;;;;;;;6239635;23;20007;-89
2022/05/29 05:10:11;;;;;;;5.15;2.25;;;;;;;;;;6239749;23;20441;-90
2022/05/29 05:12:37;;;;;;;7.13;2.08;;;;;;;;;;6239933;23;20079;-89
2022/05/29 05:15:04;;;;;;;2.92;1.63;;;;;;;;;;6242208;23;20078;-90
2022/05/29 05:17:31;;;;;;;5.50;2.00;;;;;;;;;;6242698;23;20058;-90
2022/05/29 05:19:57;;;;;;;5.32;1.73;;;;;;;;;;6241453;23;20061;-89
2022/05/29 05:22:23;;;;;;;8.00;3.15;;;;;;;;;;6239741;23;20004;-89
2022/05/29 05:25:14;;;;;;;3.45;2.53;;;;;;;;;;6241194;23;20035;-89
2022/05/29 05:27:40;;;;;;;6.75;2.17;;;;;;;;;;6231807;23;20421;-89
2022/05/29 05:30:07;;;;;;;4.53;2.00;;;;;;;;;;6242536;23;20004;-89
2022/05/29 05:32:35;;;;;;;5.28;1.60;;;;;;;;;;6243400;23;20004;-90
2022/05/29 05:35:04;;;;;;;5.63;1.77;;;;;;;;;;6242387;23;20012;-90
2022/05/29 05:37:31;;;;;;;2.28;1.50;;;;;;;;;;6241523;23;20388;-90
2022/05/29 05:39:57;;;;;;;2.65;1.50;;;;;;;;;;6243199;23;20274;-89
2022/05/29 05:42:24;;;;;;;5.00;2.45;;;;;;;;;;6242577;23;20061;-90
2022/05/29 05:44:53;;;;;;;7.05;2.58;;;;;;;;;;6241310;23;20004;-91
2022/05/29 05:47:24;;;;;;;10.13;2.67;;;;;;;;;;6242108;23;20429;-91
2022/05/29 05:49:51;;;;;;;6.13;2.05;;;;;;;;;;6243592;23;20023;-90
2022/05/29 05:52:17;;;;;;;7.07;2.42;;;;;;;;;;6241501;23;20010;-91
2022/05/29 05:54:46;;;;;;;5.15;2.00;;;;;;;;;;6241468;23;20008;-91
2022/05/29 05:57:12;;;;;;;3.38;2.20;;;;;;;;;;6243492;23;20008;-91
2022/05/29 05:59:40;;;;;;;6.10;1.67;;;;;;;;;;6242044;23;20150;-90
2022/05/29 06:02:15;;;;;;;3.08;1.55;;;;;;;;;;6245704;23;19996;-91
2022/05/29 06:04:42;;;;;;;5.25;1.70;;;;;;;;;;6270156;22;20027;-90
2022/05/29 06:07:11;;;;;;;2.75;1.40;;;;;;;;;;6269376;22;19985;-90
2022/05/29 06:09:38;;;;;;;3.83;1.50;;;;;;;;;;6266721;22;20083;-90
2022/05/29 06:12:07;;;;;;;2.53;1.40;;;;;;;;;;6247835;23;20352;-90
2022/05/29 06:14:34;;;;;;;4.40;1.75;;;;;;;;;;6244402;23;20406;-90
2022/05/29 06:17:00;;;;;;;6.95;1.60;;;;;;;;;;6241494;23;20441;-89
2022/05/29 06:19:27;;;;;;;5.32;2.53;;;;;;;;;;6242079;23;20008;-90
2022/05/29 06:21:53;;;;;;;5.78;2.42;;;;;;;;;;6242804;23;20000;-90
2022/05/29 06:24:19;;;;;;;3.13;1.95;;;;;;;;;;6241130;23;20004;-90
2022/05/29 06:26:45;;;;;;;3.88;1.95;;;;;;;;;;6242584;23;20418;-88
2022/05/29 06:29:20;;;;;;;2.33;1.50;;;;;;;;;;6243222;23;20495;-92
2022/05/29 06:31:48;;;;;;;4.70;2.28;;;;;;;;;;6241760;23;20043;-91
2022/05/29 06:34:23;;;;;;;4.60;2.08;;;;;;;;;;6242892;23;20012;-92
2022/05/29 06:36:50;;;;;;;4.25;2.20;;;;;;;;;;6241315;23;20000;-89
2022/05/29 06:39:16;;;;;;;3.72;1.92;;;;;;;;;;6240763;23;20004;-90
2022/05/29 06:41:42;;;;;;;2.33;1.45;;;;;;;;;;6240565;23;20011;-91
2022/05/29 06:44:08;;;;;;;2.15;2.00;;;;;;;;;;6241780;23;20539;-90
2022/05/29 06:46:35;;;;;;;5.63;1.95;;;;;;;;;;6242271;23;20424;-90
2022/05/29 06:49:01;;;;;;;4.57;1.40;;;;;;;;;;6242435;23;20066;-89
2022/05/29 06:51:27;;;;;;;7.88;3.95;;;;;;;;;;6242487;23;20001;-91
2022/05/29 06:53:55;;;;;;;5.47;2.60;;;;;;;;;;6242123;23;20080;-90
2022/05/29 06:56:21;;;;;;;4.35;1.90;;;;;;;;;;6240572;23;20000;-89
2022/05/29 06:58:48;;;;;;;4.85;1.92;;;;;;;;;;6241206;23;20015;-91
2022/05/29 07:07:09;;;;;;;2.53;1.10;;;;;;;;;;6242717;23;20050;-90
2022/05/29 07:09:36;;;;;;;3.63;1.10;;;;;;;;;;6242317;23;20000;-90
2022/05/29 07:12:05;;;;;;;2.65;1.20;;;;;;;;;;6242575;23;20191;-89
2022/05/29 07:14:31;;;;;;;3.30;1.83;;;;;;;;;;6240829;23;20060;-89
2022/05/29 07:17:00;;;;;;;5.80;2.40;;;;;;;;;;6242251;23;20368;-89
2022/05/29 07:19:28;;;;;;;6.78;2.15;;;;;;;;;;6240801;23;20011;-89
2022/05/29 07:21:57;;;;;;;4.72;2.13;;;;;;;;;;6240654;23;20015;-89
2022/05/29 07:24:23;;;;;;;3.25;2.05;;;;;;;;;;6242087;23;20004;-89
2022/05/29 07:26:49;;;;;;;4.60;1.85;;;;;;;;;;6240763;23;20006;-90
2022/05/29 07:29:17;;;;;;;2.70;1.30;;;;;;;;;;6240542;23;20004;-89
2022/05/29 07:31:44;;;;;;;1.83;1.10;;;;;;;;;;6240455;23;20034;-91
2022/05/29 07:34:10;;;;;;;2.60;1.20;;;;;;;;;;6242821;23;20054;-91
2022/05/29 07:36:55;;;;;;;2.72;1.35;;;;;;;;;;6242335;23;20000;-91
2022/05/29 07:39:21;;;;;;;4.05;1.98;;;;;;;;;;6240648;23;20004;-90
2022/05/29 07:44:32;;;;;;;6.97;2.55;;;;;;;;;;6241779;23;20015;-90
2022/05/29 07:46:58;;;;;;;5.50;2.00;;;;;;;;;;6240830;23;20059;-91
2022/05/29 07:49:26;;;;;;;2.70;2.15;;;;;;;;;;6240936;23;20008;-91
2022/05/29 07:51:52;;;;;;;5.72;2.85;;;;;;;;;;6239853;22;20001;-89
2022/05/29 07:54:20;;;;;;;3.88;2.10;;;;;;;;;;6241748;23;20395;-89
2022/05/29 07:56:46;;;;;;;3.00;1.50;;;;;;;;;;6240311;23;20000;-89
2022/05/29 07:59:15;;;;;;;2.28;1.65;;;;;;;;;;6242967;23;20004;-90
2022/05/29 08:01:41;;;;;;;2.38;1.20;;;;;;;;;;6243058;23;20484;-91
2022/05/29 08:04:09;;;;;;;2.55;1.42;;;;;;;;;;6240645;23;20011;-90
2022/05/29 08:06:40;;;;;;;3.33;1.77;;;;;;;;;;6240245;23;20051;-89
2022/05/29 08:09:07;;;;;;;3.80;1.77;;;;;;;;;;6240367;23;20400;-89
2022/05/29 08:11:33;;;;;;;6.45;3.03;;;;;;;;;;6241974;23;19996;-89
2022/05/29 08:14:04;;;;;;;6.30;2.85;;;;;;;;;;6243150;23;20103;-91
2022/05/29 08:16:36;;;;;;;5.82;3.53;;;;;;;;;;6240528;23;20004;-92
2022/05/29 08:19:02;;;;;;;7.47;4.45;;;;;;;;;;6240606;23;20350;-89
2022/05/29 08:21:36;;;;;;;9.55;6.82;;;;;;;;;;6240982;23;20004;-90
2022/05/29 08:30:46;;;;;;;32.83;15.15;;;;;;;;;;6241746;23;20066;-90
2022/05/29 08:33:13;;;;;;;21.95;13.00;;;;;;;;;;6240650;23;20008;-93
2022/05/29 08:38:55;;;;;;;3.53;3.03;;;;;;;;;;6231634;23;20004;-92
2022/05/29 08:41:30;;;;;;;6.32;3.08;;;;;;;;;;6246549;23;20097;-90
2022/05/29 08:44:01;;;;;;;7.00;4.43;;;;;;;;;;6239107;23;20087;-89
2022/05/29 08:47:02;;;;;;;;;;;;;;;;;;;;;
2022/05/29 08:49:43;;;;;;;8.80;3.95;;;;;;;;;;6239100;23;20079;-93
2022/05/29 08:52:30;;;;;;;3.08;1.92;;;;;;;;;;6240884;23;20012;-89
2022/05/29 08:55:33;;;;;;;3.58;2.00;;;;;;;;;;6240242;23;20081;-89
2022/05/29 08:58:21;;;;;;;4.03;2.13;;;;;;;;;;6226252;23;20015;-90
2022/05/29 09:00:57;;;;;;;1.40;1.00;;;;;;;;;;6242242;23;20072;-92
2022/05/29 09:03:36;;;;;;;1.98;1.65;;;;;;;;;;6242418;23;20783;-92
2022/05/29 09:06:12;;;;;;;;;;;;;;;;;;;;;
2022/05/29 09:08:39;;;;;;;1.58;0.90;;;;;;;;;;6242512;23;20087;-89
2022/05/29 09:11:11;;;;;;;4.32;1.95;;;;;;;;;;6236007;23;20040;-93
2022/05/29 09:13:44;;;;;;;1.77;1.00;;;;;;;;;;6238961;23;20366;-90
2022/05/29 09:16:13;;;;;;;1.55;1.00;;;;;;;;;;6242678;23;20432;-88
2022/05/29 09:18:44;;;;;;;1.90;1.10;;;;;;;;;;6237197;23;20058;-90
2022/05/29 09:21:18;;;;;;;2.92;1.00;;;;;;;;;;6237332;23;20149;-89
2022/05/29 09:23:52;;;;;;;1.73;0.80;;;;;;;;;;6242518;23;20004;-90
2022/05/29 09:26:19;;;;;;;3.67;1.60;;;;;;;;;;6238667;23;20405;-89
2022/05/29 09:28:45;;;;;;;1.80;1.10;;;;;;;;;;6237840;23;20026;-89
2022/05/29 09:31:15;;;;;;;1.23;1.08;;;;;;;;;;6240307;23;20004;-89
2022/05/29 09:33:41;;;;;;;1.98;1.15;;;;;;;;;;6236554;23;20012;-90
2022/05/29 09:36:10;;;;;;;3.38;2.08;;;;;;;;;;6240600;23;20437;-90
2022/05/29 09:38:42;;;;;;;4.88;2.35;;;;;;;;;;6238302;23;20322;-88
2022/05/29 09:41:15;;;;;;;3.63;0.93;;;;;;;;;;6236073;23;20425;-86
2022/05/29 09:44:01;;;;;;;3.58;1.80;;;;;;;;;;6237651;23;20008;-86
2022/05/29 09:46:31;;;;;;;3.05;1.52;;;;;;;;;;6246036;23;20053;-89
2022/05/29 09:51:44;;;;;;;3.45;1.00;;;;;;;;;;6247748;23;20015;-88
2022/05/29 09:54:12;;;;;;;1.53;1.10;;;;;;;;;;6243066;23;20018;-89
2022/05/29 09:56:38;;;;;;;6.82;1.88;;;;;;;;;;6238119;23;20596;-87
2022/05/29 09:59:06;;;;;;;4.60;2.03;;;;;;;;;;6240389;23;20464;-88
2022/05/29 10:01:34;;;;;;;4.97;2.83;;;;;;;;;;6237260;23;20004;-89
2022/05/29 10:04:03;;;;;;;11.90;4.53;;;;;;;;;;6236211;23;20387;-88
2022/05/29 10:06:43;;;;;;;4.97;2.33;;;;;;;;;;6241454;23;20001;-88
2022/05/29 10:09:12;;;;;;;6.00;1.70;;;;;;;;;;6236727;23;20031;-89
2022/05/29 10:11:39;;;;;;;3.78;1.40;;;;;;;;;;6241418;23;20035;-91
2022/05/29 10:14:23;;;;;;;4.63;2.20;;;;;;;;;;6236777;23;20004;-89
2022/05/29 10:16:49;;;;;;;1.55;1.10;;;;;;;;;;6237498;23;20008;-90
2022/05/29 10:19:31;;;;;;;2.05;0.95;;;;;;;;;;6242877;23;19999;-91
2022/05/29 10:21:57;;;;;;;2.40;1.52;;;;;;;;;;6239077;23;20310;-91
2022/05/29 10:24:37;;;;;;;4.05;1.83;;;;;;;;;;6237554;23;20481;-88
2022/05/29 10:27:06;;;;;;;4.72;2.13;;;;;;;;;;6239808;23;20030;-88
2022/05/29 10:29:35;;;;;;;7.13;3.08;;;;;;;;;;6237989;23;20008;-90
2022/05/29 10:32:03;;;;;;;3.20;1.98;;;;;;;;;;6241654;23;20035;-89
2022/05/29 10:34:34;;;;;;;6.68;2.47;;;;;;;;;;6238016;23;20015;-89
2022/05/29 10:37:01;;;;;;;7.05;3.67;;;;;;;;;;6237440;23;20000;-90
2022/05/29 10:39:31;;;;;;;5.47;3.87;;;;;;;;;;6241416;23;20011;-90
2022/05/29 10:41:58;;;;;;;15.00;9.73;;;;;;;;;;6237145;23;20333;-92
2022/05/29 10:44:44;;;;;;;4.22;3.28;;;;;;;;;;6235781;23;20019;-88
2022/05/29 10:47:16;;;;;;;6.78;2.85;;;;;;;;;;6241459;23;20475;-91
2022/05/29 10:49:55;;;;;;;3.72;1.50;;;;;;;;;;6236194;23;20012;-89
2022/05/29 10:52:27;;;;;;;4.85;1.38;;;;;;;;;;6235917;23;20432;-89
2022/05/29 10:55:06;;;;;;;2.90;1.40;;;;;;;;;;6239947;23;20387;-89
2022/05/29 10:57:43;;;;;;;10.05;2.20;;;;;;;;;;6240927;23;20003;-89
2022/05/29 11:00:13;;;;;;;1.27;0.93;;;;;;;;;;6235643;23;20043;-88
2022/05/29 11:05:26;;;;;;;4.13;1.60;;;;;;;;;;6241142;23;20019;-87
2022/05/29 11:08:11;;;;;;;5.57;1.15;;;;;;;;;;6237053;23;20004;-89
2022/05/29 11:10:56;;;;;;;4.10;1.95;;;;;;;;;;6237097;23;19997;-89
2022/05/29 11:13:41;;;;;;;1.67;0.98;;;;;;;;;;6239851;23;20008;-89
2022/05/29 11:16:26;;;;;;;10.52;2.30;;;;;;;;;;6257703;23;19996;-88
2022/05/29 11:18:59;;;;;;;3.85;1.10;;;;;;;;;;6252841;23;19995;-89
2022/05/29 11:21:33;;;;;;;4.30;2.92;;;;;;;;;;6265787;23;20004;-89
2022/05/29 11:24:28;;;;;;;1.50;1.25;;;;;;;;;;6243768;23;20385;-89
2022/05/29 11:27:13;;;;;;;1.67;1.13;;;;;;;;;;6229320;23;20011;-88
2022/05/29 11:29:54;;;;;;;5.13;2.45;;;;;;;;;;6236112;23;20015;-88
2022/05/29 11:32:26;;;;;;;5.72;0.90;;;;;;;;;;6239739;23;20011;-87
2022/05/29 11:35:02;;;;;;;1.80;0.93;;;;;;;;;;6236210;23;20047;-88
2022/05/29 11:37:28;;;;;;;2.72;1.20;;;;;;;;;;6236060;23;20396;-88
2022/05/29 11:40:12;;;;;;;2.85;1.98;;;;;;;;;;6238975;23;20372;-91
2022/05/29 11:42:50;;;;;;;3.97;2.88;;;;;;;;;;6235195;23;20040;-90
2022/05/29 11:45:22;;;;;;;4.17;1.80;;;;;;;;;;6235479;23;20004;-88
2022/05/29 11:51:10;;;;;;;3.97;1.40;;;;;;;;;;6241498;23;20019;-89
2022/05/29 11:53:36;;;;;;;;;;;;;;;;;;6236597;23;20011;-88
2022/05/29 11:56:08;;;;;;;3.58;1.45;;;;;;;;;;6236452;23;19903;-90
2022/05/29 11:58:38;;;;;;;3.60;1.52;;;;;;;;;;6241531;23;19996;-90
2022/05/29 12:01:10;;;;;;;2.25;1.35;;;;;;;;;;6236960;23;20075;-89
2022/05/29 12:03:54;;;;;;;7.30;1.20;;;;;;;;;;6237430;23;20000;-87
2022/05/29 12:06:30;;;;;;;1.33;1.00;;;;;;;;;;6241467;23;20447;-92
2022/05/29 12:09:05;;;;;;;3.90;1.23;;;;;;;;;;6237399;23;20000;-88
2022/05/29 12:11:40;;;;;;;6.93;1.20;;;;;;;;;;6237478;23;19996;-94
2022/05/29 12:14:27;;;;;;;2.35;1.33;;;;;;;;;;6239366;23;20039;-90
2022/05/29 12:17:05;;;;;;;2.17;1.00;;;;;;;;;;6237762;23;20004;-88
2022/05/29 12:19:43;;;;;;;;;;;;;;;;;;6237776;23;20008;-93
2022/05/29 12:22:10;;;;;;;5.43;2.75;;;;;;;;;;6237794;23;19903;-89
2022/05/29 12:24:38;;;;;;;5.55;1.55;;;;;;;;;;6238997;23;20015;-90
2022/05/29 12:27:12;;;;;;;3.42;1.55;;;;;;;;;;6237567;23;20464;-89
2022/05/29 12:29:57;;;;;;;4.28;2.20;;;;;;;;;;6235671;23;20011;-91
2022/05/29 12:32:27;;;;;;;2.10;1.08;;;;;;;;;;6241177;23;20505;-89
2022/05/29 12:35:12;;;;;;;5.32;1.13;;;;;;;;;;6236380;23;20020;-90
2022/05/29 12:37:38;;;;;;;5.50;1.60;;;;;;;;;;6236513;23;20349;-90
2022/05/29 12:40:13;;;;;;;5.18;1.23;;;;;;;;;;6239055;23;20008;-90
2022/05/29 12:43:00;;;;;;;4.38;1.70;;;;;;;;;;6235392;23;20095;-91
2022/05/29 12:45:39;;;;;;;4.20;1.33;;;;;;;;;;6235808;23;20004;-90
2022/05/29 12:48:08;;;;;;;2.92;1.35;;;;;;;;;;6241111;23;20432;-93
2022/05/29 12:50:55;;;;;;;2.35;1.17;;;;;;;;;;6237141;23;20000;-93
2022/05/29 12:53:44;;;;;;;4.55;1.10;;;;;;;;;;6238171;23;20067;-92
2022/05/29 12:56:24;;;;;;;4.93;2.28;;;;;;;;;;6235369;23;20035;-91
2022/05/29 12:59:10;;;;;;;3.15;0.98;;;;;;;;;;6240287;23;20007;-91
2022/05/29 13:01:38;;;;;;;4.45;1.35;;;;;;;;;;6236731;23;20130;-89
2022/05/29 13:04:16;;;;;;;2.58;1.30;;;;;;;;;;6239850;23;20396;-89
2022/05/29 13:06:54;;;;;;;1.70;0.90;;;;;;;;;;6236286;23;20368;-90
2022/05/29 13:09:20;;;;;;;;;;;;;;;;;;6242174;23;19996;-90
2022/05/29 13:11:50;;;;;;;1.48;0.80;;;;;;;;;;6235590;23;19900;-88
2022/05/29 13:14:17;;;;;;;2.83;1.75;;;;;;;;;;6236163;23;20012;-89
2022/05/29 13:16:44;;;;;;;2.25;0.80;;;;;;;;;;6238117;23;20000;-88
2022/05/29 13:19:17;;;;;;;5.65;2.08;;;;;;;;;;6236081;23;20001;-89
2022/05/29 13:22:02;;;;;;;4.40;1.95;;;;;;;;;;6233826;23;20601;-88
2022/05/29 13:24:30;;;;;;;5.35;1.42;;;;;;;;;;6239544;23;20007;-87
2022/05/29 13:27:16;;;;;;;2.28;1.27;;;;;;;;;;6235413;23;20004;-89
2022/05/29 13:29:47;;;;;;;3.85;0.93;;;;;;;;;;6235570;23;20458;-90
2022/05/29 13:32:13;;;;;;;3.90;1.15;;;;;;;;;;6237984;23;20006;-90
2022/05/29 13:34:40;;;;;;;2.92;1.50;;;;;;;;;;6233981;23;20016;-90
2022/05/29 13:37:09;;;;;;;2.17;1.30;;;;;;;;;;6233607;23;20079;-88
2022/05/29 13:39:37;;;;;;;2.45;1.20;;;;;;;;;;6239997;23;20024;-88
2022/05/29 13:42:05;;;;;;;2.50;1.25;;;;;;;;;;6235491;23;20035;-90
2022/05/29 13:44:44;;;;;;;3.05;1.40;;;;;;;;;;6235483;23;20008;-86
2022/05/29 13:47:19;;;;;;;3.28;1.65;;;;;;;;;;6239736;23;20000;-88
2022/05/29 13:49:57;;;;;;;4.07;1.10;;;;;;;;;;6236995;23;20076;-87
2022/05/29 13:52:23;;;;;;;;;;;;;;;;;;6238124;23;20483;-89
2022/05/29 13:55:07;;;;;;;4.22;1.00;;;;;;;;;;6248742;23;19911;-89
2022/05/29 14:04:01;;;;;;;3.13;1.58;;;;;;;;;;6242377;23;20038;-90
2022/05/29 14:06:27;;;;;;;3.50;1.27;;;;;;;;;;6239820;23;20000;-91
2022/05/29 14:09:12;;;;;;;2.78;1.20;;;;;;;;;;6237720;23;20007;-92
2022/05/29 14:11:41;;;;;;;3.25;1.40;;;;;;;;;;6236679;23;20092;-90
2022/05/29 14:14:26;;;;;;;3.40;1.52;;;;;;;;;;6239623;23;20043;-90
2022/05/29 14:16:54;;;;;;;3.22;0.90;;;;;;;;;;6240530;23;20043;-89
2022/05/29 14:19:34;;;;;;;4.63;1.52;;;;;;;;;;6238386;23;20071;-91
2022/05/29 14:22:21;;;;;;;4.13;2.10;;;;;;;;;;6237686;23;20058;-94
2022/05/29 14:25:07;;;;;;;3.17;1.13;;;;;;;;;;6242996;23;20000;-90
2022/05/29 14:28:02;;;;;;;7.07;2.08;;;;;;;;;;6237978;23;20004;-87
2022/05/29 14:30:41;;;;;;;1.58;1.10;;;;;;;;;;6223053;23;20005;-93
2022/05/29 14:33:10;;;;;;;21.48;1.85;;;;;;;;;;6240832;23;20495;-87
2022/05/29 14:35:57;;;;;;;2.10;1.42;;;;;;;;;;6235172;23;20015;-87
2022/05/29 14:38:35;;;;;;;2.40;1.33;;;;;;;;;;6229138;23;20004;-89
2022/05/29 14:41:12;;;;;;;4.10;1.35;;;;;;;;;;6238916;23;20353;-90
2022/05/29 14:43:40;;;;;;;3.03;1.77;;;;;;;;;;6236820;23;20038;-91
2022/05/29 14:49:19;;;;;;;4.28;1.30;;;;;;;;;;6242502;23;20008;-90
2022/05/29 14:51:48;;;;;;;2.75;1.00;;;;;;;;;;6242430;23;20353;-89
2022/05/29 14:54:35;;;;;;;2.15;1.17;;;;;;;;;;6240124;23;20218;-91
2022/05/29 14:57:07;;;;;;;2.83;1.20;;;;;;;;;;6241443;23;20429;-90
2022/05/29 14:59:45;;;;;;;3.85;1.45;;;;;;;;;;6242930;23;20000;-88
2022/05/29 15:02:27;;;;;;;2.72;1.77;;;;;;;;;;6239226;23;20429;-91
2022/05/29 15:04:59;;;;;;;4.28;1.17;;;;;;;;;;6242283;23;20050;-87
2022/05/29 15:10:32;;;;;;;5.15;1.60;;;;;;;;;;6240855;23;20046;-90
2022/05/29 15:13:03;;;;;;;2.08;0.98;;;;;;;;;;6239443;23;20020;-91
2022/05/29 15:15:37;;;;;;;2.15;1.38;;;;;;;;;;6238931;23;20024;-88
2022/05/29 15:18:11;;;;;;;2.72;1.33;;;;;;;;;;6240482;23;20000;-87
2022/05/29 15:24:10;;;;;;;1.58;1.00;;;;;;;;;;6240706;23;20016;-90
2022/05/29 15:26:37;;;;;;;4.38;2.28;;;;;;;;;;6241254;23;20023;-91
2022/05/29 15:29:09;;;;;;;3.80;1.90;;;;;;;;;;6238676;23;20051;-89
2022/05/29 15:31:36;;;;;;;2.70;1.48;;;;;;;;;;6237166;23;20013;-88
2022/05/29 15:34:20;;;;;;;3.00;1.98;;;;;;;;;;6239963;23;20008;-90
2022/05/29 15:37:01;;;;;;;5.20;1.35;;;;;;;;;;6239886;23;20004;-90
2022/05/29 15:39:39;;;;;;;2.97;1.50;;;;;;;;;;6240713;23;20380;-91
2022/05/29 15:42:24;;;;;;;4.45;2.03;;;;;;;;;;6239309;23;20008;-89
2022/05/29 15:45:06;;;;;;;4.75;1.25;;;;;;;;;;6239716;23;20000;-89
2022/05/29 15:47:50;;;;;;;5.90;2.00;;;;;;;;;;6238571;23;20008;-89
2022/05/29 15:50:16;;;;;;;3.28;1.75;;;;;;;;;;6238351;23;20004;-89
2022/05/29 15:53:01;;;;;;;8.35;4.07;;;;;;;;;;6240189;23;20004;-88
2022/05/29 15:55:28;;;;;;;4.53;2.00;;;;;;;;;;6239378;23;20023;-87
2022/05/29 15:58:12;;;;;;;2.63;1.73;;;;;;;;;;6241110;23;20004;-88
2022/05/29 16:00:58;;;;;;;6.25;2.88;;;;;;;;;;6240120;23;20000;-90
2022/05/29 16:03:33;;;;;;;2.97;1.52;;;;;;;;;;6240648;23;20000;-88